sensor_id;sensor_type;location;lat;lon;timestamp;temperature;humidity
2999;DHT22;1509;51.964;7.628;2022-09-13T00:00:31;18.40;99.90
2999;DHT22;1509;51.964;7.628;2022-09-13T00:02:57;18.40;99.90
2999;DHT22;1509;51.964;7.628;2022-09-13T00:05:22;18.40;99.90
2999;DHT22;1509;51.964;7.628;2022-09-13T00:07:48;18.40;99.90
2999;DHT22;1509;51.964;7.628;2022-09-13T00:10:17;18.40;99.90
2999;DHT22;1509;51.964;7.628;2022-09-13T00:12:42;18.40;99.90
2999;DHT22;1509;51.964;7.628;2022-09-13T00:15:08;18.40;99.90
2999;DHT22;1509;51.964;7.628;2022-09-13T00:17:34;18.50;99.90
2999;DHT22;1509;51.964;7.628;2022-09-13T00:20:00;18.40;99.90
2999;DHT22;1509;51.964;7.628;2022-09-13T00:22:26;18.50;99.90
2999;DHT22;1509;51.964;7.628;2022-09-13T00:24:52;18.50;99.90
2999;DHT22;1509;51.964;7.628;2022-09-13T00:27:18;18.60;99.90
2999;DHT22;1509;51.964;7.628;2022-09-13T00:29:44;18.70;99.90
2999;DHT22;1509;51.964;7.628;2022-09-13T00:32:10;18.70;99.90
2999;DHT22;1509;51.964;7.628;2022-09-13T00:34:36;18.80;99.90
2999;DHT22;1509;51.964;7.628;2022-09-13T00:37:01;18.80;99.90
2999;DHT22;1509;51.964;7.628;2022-09-13T00:39:27;18.80;99.90
2999;DHT22;1509;51.964;7.628;2022-09-13T00:41:53;18.70;99.90
2999;DHT22;1509;51.964;7.628;2022-09-13T00:47:35;18.50;99.90
2999;DHT22;1509;51.964;7.628;2022-09-13T00:52:56;18.40;99.90
2999;DHT22;1509;51.964;7.628;2022-09-13T00:55:34;18.50;99.90
2999;DHT22;1509;51.964;7.628;2022-09-13T00:58:04;18.40;99.90
2999;DHT22;1509;51.964;7.628;2022-09-13T01:00:30;18.40;99.90
2999;DHT22;1509;51.964;7.628;2022-09-13T01:02:59;18.40;99.90
2999;DHT22;1509;51.964;7.628;2022-09-13T01:05:31;18.50;99.90
2999;DHT22;1509;51.964;7.628;2022-09-13T01:07:59;18.50;99.90
2999;DHT22;1509;51.964;7.628;2022-09-13T01:10:28;18.50;99.90
2999;DHT22;1509;51.964;7.628;2022-09-13T01:13:19;18.50;99.90
2999;DHT22;1509;51.964;7.628;2022-09-13T01:15:46;18.50;99.90
2999;DHT22;1509;51.964;7.628;2022-09-13T01:18:12;18.50;99.90
2999;DHT22;1509;51.964;7.628;2022-09-13T01:31:53;18.40;99.90
2999;DHT22;1509;51.964;7.628;2022-09-13T01:40:08;18.20;99.90
2999;DHT22;1509;51.964;7.628;2022-09-13T01:45:52;17.90;99.90
2999;DHT22;1509;51.964;7.628;2022-09-13T01:48:50;17.80;99.90
2999;DHT22;1509;51.964;7.628;2022-09-13T01:54:17;17.80;99.90
2999;DHT22;1509;51.964;7.628;2022-09-13T01:57:16;17.70;99.90
2999;DHT22;1509;51.964;7.628;2022-09-13T01:59:48;17.70;99.90
2999;DHT22;1509;51.964;7.628;2022-09-13T02:04:49;17.80;99.90
2999;DHT22;1509;51.964;7.628;2022-09-13T02:07:21;17.80;99.90
2999;DHT22;1509;51.964;7.628;2022-09-13T02:09:54;17.90;99.90
2999;DHT22;1509;51.964;7.628;2022-09-13T02:12:23;17.90;99.90
2999;DHT22;1509;51.964;7.628;2022-09-13T02:17:37;17.90;99.90
2999;DHT22;1509;51.964;7.628;2022-09-13T02:20:26;18.00;99.90
2999;DHT22;1509;51.964;7.628;2022-09-13T02:22:56;18.00;99.90
2999;DHT22;1509;51.964;7.628;2022-09-13T02:25:25;18.00;99.90
2999;DHT22;1509;51.964;7.628;2022-09-13T02:27:54;18.00;99.90
2999;DHT22;1509;51.964;7.628;2022-09-13T02:30:23;17.80;99.90
2999;DHT22;1509;51.964;7.628;2022-09-13T02:33:09;17.80;99.90
2999;DHT22;1509;51.964;7.628;2022-09-13T02:38:30;17.70;99.90
2999;DHT22;1509;51.964;7.628;2022-09-13T02:41:29;17.70;99.90
2999;DHT22;1509;51.964;7.628;2022-09-13T02:44:08;17.70;99.90
2999;DHT22;1509;51.964;7.628;2022-09-13T02:47:02;17.70;99.90
2999;DHT22;1509;51.964;7.628;2022-09-13T02:55:54;17.70;99.90
2999;DHT22;1509;51.964;7.628;2022-09-13T03:01:09;17.90;99.90
2999;DHT22;1509;51.964;7.628;2022-09-13T03:03:35;17.90;99.90
2999;DHT22;1509;51.964;7.628;2022-09-13T03:06:01;17.90;99.90
2999;DHT22;1509;51.964;7.628;2022-09-13T03:08:27;17.90;99.90
2999;DHT22;1509;51.964;7.628;2022-09-13T03:22:11;17.70;99.90
2999;DHT22;1509;51.964;7.628;2022-09-13T03:27:35;17.70;99.90
2999;DHT22;1509;51.964;7.628;2022-09-13T03:30:12;17.70;99.90
2999;DHT22;1509;51.964;7.628;2022-09-13T03:32:49;17.70;99.90
2999;DHT22;1509;51.964;7.628;2022-09-13T03:35:23;17.70;99.90
2999;DHT22;1509;51.964;7.628;2022-09-13T03:37:58;17.70;99.90
2999;DHT22;1509;51.964;7.628;2022-09-13T03:43:08;17.80;99.90
2999;DHT22;1509;51.964;7.628;2022-09-13T03:45:41;17.70;99.90
2999;DHT22;1509;51.964;7.628;2022-09-13T03:48:08;17.70;99.90
2999;DHT22;1509;51.964;7.628;2022-09-13T03:50:35;17.70;99.90
2999;DHT22;1509;51.964;7.628;2022-09-13T03:53:09;17.70;99.90
2999;DHT22;1509;51.964;7.628;2022-09-13T03:55:39;17.70;99.90
2999;DHT22;1509;51.964;7.628;2022-09-13T03:58:05;17.70;99.90
2999;DHT22;1509;51.964;7.628;2022-09-13T04:00:31;17.70;99.90
2999;DHT22;1509;51.964;7.628;2022-09-13T04:02:56;17.80;99.90
2999;DHT22;1509;51.964;7.628;2022-09-13T04:05:22;17.80;99.90
2999;DHT22;1509;51.964;7.628;2022-09-13T04:07:47;17.90;99.90
2999;DHT22;1509;51.964;7.628;2022-09-13T04:10:13;17.90;99.90
2999;DHT22;1509;51.964;7.628;2022-09-13T04:12:39;18.00;99.90
2999;DHT22;1509;51.964;7.628;2022-09-13T04:15:06;18.00;99.90
2999;DHT22;1509;51.964;7.628;2022-09-13T04:17:32;17.90;99.90
2999;DHT22;1509;51.964;7.628;2022-09-13T04:19:57;18.00;99.90
2999;DHT22;1509;51.964;7.628;2022-09-13T04:22:23;18.00;99.90
2999;DHT22;1509;51.964;7.628;2022-09-13T04:24:48;18.00;99.90
2999;DHT22;1509;51.964;7.628;2022-09-13T04:27:15;18.10;99.90
2999;DHT22;1509;51.964;7.628;2022-09-13T04:29:40;18.10;99.90
2999;DHT22;1509;51.964;7.628;2022-09-13T04:32:06;18.10;99.90
2999;DHT22;1509;51.964;7.628;2022-09-13T04:34:33;18.10;99.90
2999;DHT22;1509;51.964;7.628;2022-09-13T04:36:59;18.10;99.90
2999;DHT22;1509;51.964;7.628;2022-09-13T04:39:24;18.10;99.90
2999;DHT22;1509;51.964;7.628;2022-09-13T04:41:50;18.00;99.90
2999;DHT22;1509;51.964;7.628;2022-09-13T04:44:17;18.10;99.90
2999;DHT22;1509;51.964;7.628;2022-09-13T04:46:45;18.00;99.90
2999;DHT22;1509;51.964;7.628;2022-09-13T04:49:13;18.00;99.90
2999;DHT22;1509;51.964;7.628;2022-09-13T04:51:39;18.00;99.90
2999;DHT22;1509;51.964;7.628;2022-09-13T04:54:05;18.00;99.90
2999;DHT22;1509;51.964;7.628;2022-09-13T04:56:30;17.90;99.90
2999;DHT22;1509;51.964;7.628;2022-09-13T04:58:56;17.90;99.90
2999;DHT22;1509;51.964;7.628;2022-09-13T05:01:22;18.00;99.90
2999;DHT22;1509;51.964;7.628;2022-09-13T05:03:50;18.00;99.90
2999;DHT22;1509;51.964;7.628;2022-09-13T05:06:16;18.00;99.90
2999;DHT22;1509;51.964;7.628;2022-09-13T05:08:50;18.00;99.90
2999;DHT22;1509;51.964;7.628;2022-09-13T05:11:17;18.10;99.90
2999;DHT22;1509;51.964;7.628;2022-09-13T05:13:43;18.10;99.90
2999;DHT22;1509;51.964;7.628;2022-09-13T05:16:08;18.00;99.90
2999;DHT22;1509;51.964;7.628;2022-09-13T05:18:35;18.10;99.90
2999;DHT22;1509;51.964;7.628;2022-09-13T05:21:03;18.10;99.90
2999;DHT22;1509;51.964;7.628;2022-09-13T05:23:30;18.10;99.90
2999;DHT22;1509;51.964;7.628;2022-09-13T05:26:01;18.10;99.90
2999;DHT22;1509;51.964;7.628;2022-09-13T05:28:28;18.10;99.90
2999;DHT22;1509;51.964;7.628;2022-09-13T05:33:39;18.10;99.90
2999;DHT22;1509;51.964;7.628;2022-09-13T05:36:05;18.10;99.90
2999;DHT22;1509;51.964;7.628;2022-09-13T05:38:32;18.10;99.90
2999;DHT22;1509;51.964;7.628;2022-09-13T05:41:02;18.10;99.90
2999;DHT22;1509;51.964;7.628;2022-09-13T05:43:30;18.10;99.90
2999;DHT22;1509;51.964;7.628;2022-09-13T05:46:01;18.10;99.90
2999;DHT22;1509;51.964;7.628;2022-09-13T05:48:28;18.10;99.90
2999;DHT22;1509;51.964;7.628;2022-09-13T05:50:54;18.10;99.90
2999;DHT22;1509;51.964;7.628;2022-09-13T05:53:19;18.20;99.90
2999;DHT22;1509;51.964;7.628;2022-09-13T05:55:45;18.20;99.90
2999;DHT22;1509;51.964;7.628;2022-09-13T05:58:10;18.30;99.90
2999;DHT22;1509;51.964;7.628;2022-09-13T06:00:36;18.20;99.90
2999;DHT22;1509;51.964;7.628;2022-09-13T06:03:02;18.20;99.90
2999;DHT22;1509;51.964;7.628;2022-09-13T06:05:28;18.20;99.90
2999;DHT22;1509;51.964;7.628;2022-09-13T06:07:53;18.30;99.90
2999;DHT22;1509;51.964;7.628;2022-09-13T06:10:19;18.30;99.90
2999;DHT22;1509;51.964;7.628;2022-09-13T06:12:45;18.30;99.90
2999;DHT22;1509;51.964;7.628;2022-09-13T06:15:11;18.40;99.90
2999;DHT22;1509;51.964;7.628;2022-09-13T06:17:37;18.40;99.90
2999;DHT22;1509;51.964;7.628;2022-09-13T06:20:04;18.40;99.90
2999;DHT22;1509;51.964;7.628;2022-09-13T06:22:32;18.50;99.90
2999;DHT22;1509;51.964;7.628;2022-09-13T06:24:59;18.40;99.90
2999;DHT22;1509;51.964;7.628;2022-09-13T06:27:25;18.50;99.90
2999;DHT22;1509;51.964;7.628;2022-09-13T06:29:50;18.50;99.90
2999;DHT22;1509;51.964;7.628;2022-09-13T06:32:16;18.50;99.90
2999;DHT22;1509;51.964;7.628;2022-09-13T06:34:42;18.50;99.90
2999;DHT22;1509;51.964;7.628;2022-09-13T06:37:07;18.50;99.90
2999;DHT22;1509;51.964;7.628;2022-09-13T06:39:33;18.60;99.90
2999;DHT22;1509;51.964;7.628;2022-09-13T06:41:59;18.60;99.90
2999;DHT22;1509;51.964;7.628;2022-09-13T06:44:25;18.50;99.90
2999;DHT22;1509;51.964;7.628;2022-09-13T06:46:50;18.60;99.90
2999;DHT22;1509;51.964;7.628;2022-09-13T06:49:16;18.60;99.90
2999;DHT22;1509;51.964;7.628;2022-09-13T06:51:42;18.70;99.90
2999;DHT22;1509;51.964;7.628;2022-09-13T06:54:10;18.70;99.90
2999;DHT22;1509;51.964;7.628;2022-09-13T06:56:37;18.70;99.90
2999;DHT22;1509;51.964;7.628;2022-09-13T06:59:05;18.70;99.90
2999;DHT22;1509;51.964;7.628;2022-09-13T07:01:39;18.80;99.90
2999;DHT22;1509;51.964;7.628;2022-09-13T07:04:07;18.80;99.90
2999;DHT22;1509;51.964;7.628;2022-09-13T07:06:35;18.90;99.90
2999;DHT22;1509;51.964;7.628;2022-09-13T07:09:03;19.00;99.90
2999;DHT22;1509;51.964;7.628;2022-09-13T07:11:33;19.10;99.90
2999;DHT22;1509;51.964;7.628;2022-09-13T07:13:59;19.10;99.90
2999;DHT22;1509;51.964;7.628;2022-09-13T07:16:27;19.10;99.90
2999;DHT22;1509;51.964;7.628;2022-09-13T07:19:10;19.10;99.90
2999;DHT22;1509;51.964;7.628;2022-09-13T07:21:36;19.10;99.90
2999;DHT22;1509;51.964;7.628;2022-09-13T07:24:03;19.10;99.90
2999;DHT22;1509;51.964;7.628;2022-09-13T07:26:29;19.10;99.90
2999;DHT22;1509;51.964;7.628;2022-09-13T07:28:57;19.20;99.90
2999;DHT22;1509;51.964;7.628;2022-09-13T07:31:28;19.30;99.90
2999;DHT22;1509;51.964;7.628;2022-09-13T07:33:57;19.30;99.90
2999;DHT22;1509;51.964;7.628;2022-09-13T07:36:24;19.40;99.90
2999;DHT22;1509;51.964;7.628;2022-09-13T07:38:50;19.50;99.90
2999;DHT22;1509;51.964;7.628;2022-09-13T07:41:18;19.60;99.90
2999;DHT22;1509;51.964;7.628;2022-09-13T07:43:44;19.80;99.90
2999;DHT22;1509;51.964;7.628;2022-09-13T07:46:18;19.80;99.90
2999;DHT22;1509;51.964;7.628;2022-09-13T07:48:46;20.00;99.90
2999;DHT22;1509;51.964;7.628;2022-09-13T07:51:17;20.00;99.90
2999;DHT22;1509;51.964;7.628;2022-09-13T07:53:45;20.10;99.90
2999;DHT22;1509;51.964;7.628;2022-09-13T07:56:22;20.10;99.90
2999;DHT22;1509;51.964;7.628;2022-09-13T07:58:49;20.20;99.90
2999;DHT22;1509;51.964;7.628;2022-09-13T08:01:19;20.20;99.90
2999;DHT22;1509;51.964;7.628;2022-09-13T08:03:56;20.20;99.90
2999;DHT22;1509;51.964;7.628;2022-09-13T08:06:23;20.20;99.90
2999;DHT22;1509;51.964;7.628;2022-09-13T08:08:49;20.20;99.90
2999;DHT22;1509;51.964;7.628;2022-09-13T08:11:17;20.10;99.90
2999;DHT22;1509;51.964;7.628;2022-09-13T08:13:46;20.20;99.90
2999;DHT22;1509;51.964;7.628;2022-09-13T08:16:13;20.20;99.90
2999;DHT22;1509;51.964;7.628;2022-09-13T08:18:47;20.10;99.90
2999;DHT22;1509;51.964;7.628;2022-09-13T08:21:13;20.00;99.90
2999;DHT22;1509;51.964;7.628;2022-09-13T08:23:40;20.10;99.90
2999;DHT22;1509;51.964;7.628;2022-09-13T08:26:06;20.10;99.90
2999;DHT22;1509;51.964;7.628;2022-09-13T08:28:33;20.20;99.90
2999;DHT22;1509;51.964;7.628;2022-09-13T08:31:06;20.20;99.90
2999;DHT22;1509;51.964;7.628;2022-09-13T08:33:33;20.20;99.90
2999;DHT22;1509;51.964;7.628;2022-09-13T08:35:59;20.20;99.90
2999;DHT22;1509;51.964;7.628;2022-09-13T08:38:25;20.20;99.90
2999;DHT22;1509;51.964;7.628;2022-09-13T08:40:55;20.30;99.90
2999;DHT22;1509;51.964;7.628;2022-09-13T08:43:48;20.50;99.90
2999;DHT22;1509;51.964;7.628;2022-09-13T08:46:32;20.60;99.90
2999;DHT22;1509;51.964;7.628;2022-09-13T08:49:02;20.70;99.90
2999;DHT22;1509;51.964;7.628;2022-09-13T08:51:39;20.80;99.90
2999;DHT22;1509;51.964;7.628;2022-09-13T08:54:07;20.80;99.90
2999;DHT22;1509;51.964;7.628;2022-09-13T08:56:39;20.80;99.90
2999;DHT22;1509;51.964;7.628;2022-09-13T09:01:57;21.00;99.90
2999;DHT22;1509;51.964;7.628;2022-09-13T09:06:59;21.10;99.90
2999;DHT22;1509;51.964;7.628;2022-09-13T09:09:27;21.30;99.90
2999;DHT22;1509;51.964;7.628;2022-09-13T09:14:41;21.60;99.90
2999;DHT22;1509;51.964;7.628;2022-09-13T09:17:23;21.50;99.90
2999;DHT22;1509;51.964;7.628;2022-09-13T09:19:55;21.50;99.90
2999;DHT22;1509;51.964;7.628;2022-09-13T09:22:31;21.80;99.90
2999;DHT22;1509;51.964;7.628;2022-09-13T09:24:59;22.10;99.90
2999;DHT22;1509;51.964;7.628;2022-09-13T09:27:25;22.50;99.90
2999;DHT22;1509;51.964;7.628;2022-09-13T09:29:53;22.70;99.90
2999;DHT22;1509;51.964;7.628;2022-09-13T09:32:48;23.30;99.90
2999;DHT22;1509;51.964;7.628;2022-09-13T09:40:59;25.80;99.90
2999;DHT22;1509;51.964;7.628;2022-09-13T09:43:32;25.10;99.90
2999;DHT22;1509;51.964;7.628;2022-09-13T09:46:02;25.20;99.90
2999;DHT22;1509;51.964;7.628;2022-09-13T09:48:34;25.20;99.90
2999;DHT22;1509;51.964;7.628;2022-09-13T09:51:03;25.10;99.90
2999;DHT22;1509;51.964;7.628;2022-09-13T09:53:34;24.60;99.90
2999;DHT22;1509;51.964;7.628;2022-09-13T09:56:23;24.10;99.90
2999;DHT22;1509;51.964;7.628;2022-09-13T09:58:50;23.70;99.90
2999;DHT22;1509;51.964;7.628;2022-09-13T10:01:34;23.60;99.90
2999;DHT22;1509;51.964;7.628;2022-09-13T10:06:38;23.40;99.90
2999;DHT22;1509;51.964;7.628;2022-09-13T10:09:18;23.30;99.90
2999;DHT22;1509;51.964;7.628;2022-09-13T10:11:51;23.30;99.90
2999;DHT22;1509;51.964;7.628;2022-09-13T10:20:20;22.70;99.90
2999;DHT22;1509;51.964;7.628;2022-09-13T10:25:43;22.50;99.90
2999;DHT22;1509;51.964;7.628;2022-09-13T10:28:14;22.70;99.90
2999;DHT22;1509;51.964;7.628;2022-09-13T10:33:37;23.30;99.90
2999;DHT22;1509;51.964;7.628;2022-09-13T10:36:13;23.10;99.90
2999;DHT22;1509;51.964;7.628;2022-09-13T10:38:40;23.00;99.90
2999;DHT22;1509;51.964;7.628;2022-09-13T10:41:20;23.00;99.90
2999;DHT22;1509;51.964;7.628;2022-09-13T10:43:47;23.20;99.90
2999;DHT22;1509;51.964;7.628;2022-09-13T10:46:21;23.30;99.90
2999;DHT22;1509;51.964;7.628;2022-09-13T10:48:48;23.10;99.90
2999;DHT22;1509;51.964;7.628;2022-09-13T10:56:35;22.40;99.90
2999;DHT22;1509;51.964;7.628;2022-09-13T10:59:26;22.40;99.90
2999;DHT22;1509;51.964;7.628;2022-09-13T11:15:25;22.40;99.90
2999;DHT22;1509;51.964;7.628;2022-09-13T11:20:52;22.20;99.90
2999;DHT22;1509;51.964;7.628;2022-09-13T11:26:38;22.00;99.90
2999;DHT22;1509;51.964;7.628;2022-09-13T11:34:46;22.00;99.90
2999;DHT22;1509;51.964;7.628;2022-09-13T11:42:53;22.30;99.90
2999;DHT22;1509;51.964;7.628;2022-09-13T11:45:31;22.30;99.90
2999;DHT22;1509;51.964;7.628;2022-09-13T11:48:23;22.30;99.90
2999;DHT22;1509;51.964;7.628;2022-09-13T11:54:01;22.20;99.90
2999;DHT22;1509;51.964;7.628;2022-09-13T11:56:49;22.40;99.90
2999;DHT22;1509;51.964;7.628;2022-09-13T11:59:27;22.60;99.90
2999;DHT22;1509;51.964;7.628;2022-09-13T12:02:01;22.70;99.90
2999;DHT22;1509;51.964;7.628;2022-09-13T12:04:46;22.60;99.90
2999;DHT22;1509;51.964;7.628;2022-09-13T12:07:46;22.40;99.90
2999;DHT22;1509;51.964;7.628;2022-09-13T12:11:37;22.40;99.90
2999;DHT22;1509;51.964;7.628;2022-09-13T12:13:36;22.40;99.90
2999;DHT22;1509;51.964;7.628;2022-09-13T12:16:07;22.40;99.90
2999;DHT22;1509;51.964;7.628;2022-09-13T12:18:41;22.60;99.90
2999;DHT22;1509;51.964;7.628;2022-09-13T12:21:13;22.70;99.90
2999;DHT22;1509;51.964;7.628;2022-09-13T12:23:41;22.60;99.90
2999;DHT22;1509;51.964;7.628;2022-09-13T12:26:18;22.70;99.90
2999;DHT22;1509;51.964;7.628;2022-09-13T12:28:57;22.90;99.90
2999;DHT22;1509;51.964;7.628;2022-09-13T12:31:29;23.00;99.90
2999;DHT22;1509;51.964;7.628;2022-09-13T12:33:56;23.30;99.90
2999;DHT22;1509;51.964;7.628;2022-09-13T12:42:56;23.40;99.90
2999;DHT22;1509;51.964;7.628;2022-09-13T12:48:43;23.30;99.90
2999;DHT22;1509;51.964;7.628;2022-09-13T13:02:37;26.20;99.90
2999;DHT22;1509;51.964;7.628;2022-09-13T13:05:19;27.50;99.90
2999;DHT22;1509;51.964;7.628;2022-09-13T13:07:52;28.00;99.90
2999;DHT22;1509;51.964;7.628;2022-09-13T13:10:31;28.30;99.90
2999;DHT22;1509;51.964;7.628;2022-09-13T13:13:17;27.60;99.90
2999;DHT22;1509;51.964;7.628;2022-09-13T13:29:28;24.40;99.90
2999;DHT22;1509;51.964;7.628;2022-09-13T13:39:47;23.90;99.90
2999;DHT22;1509;51.964;7.628;2022-09-13T13:42:27;23.90;99.90
2999;DHT22;1509;51.964;7.628;2022-09-13T13:49:50;23.70;99.90
2999;DHT22;1509;51.964;7.628;2022-09-13T13:57:51;24.20;99.90
2999;DHT22;1509;51.964;7.628;2022-09-13T14:00:24;24.80;99.90
2999;DHT22;1509;51.964;7.628;2022-09-13T14:08:28;25.50;99.90
2999;DHT22;1509;51.964;7.628;2022-09-13T14:13:42;25.30;99.90
2999;DHT22;1509;51.964;7.628;2022-09-13T14:16:34;25.20;99.90
2999;DHT22;1509;51.964;7.628;2022-09-13T14:19:25;25.10;99.90
2999;DHT22;1509;51.964;7.628;2022-09-13T14:22:26;24.80;99.90
2999;DHT22;1509;51.964;7.628;2022-09-13T14:24:54;24.60;99.90
2999;DHT22;1509;51.964;7.628;2022-09-13T14:27:26;24.70;99.90
2999;DHT22;1509;51.964;7.628;2022-09-13T14:29:59;24.60;99.90
2999;DHT22;1509;51.964;7.628;2022-09-13T14:32:28;24.50;99.90
2999;DHT22;1509;51.964;7.628;2022-09-13T14:35:00;24.40;99.90
2999;DHT22;1509;51.964;7.628;2022-09-13T14:37:32;24.50;99.90
2999;DHT22;1509;51.964;7.628;2022-09-13T14:42:26;24.30;99.90
2999;DHT22;1509;51.964;7.628;2022-09-13T14:44:51;24.20;99.90
2999;DHT22;1509;51.964;7.628;2022-09-13T14:47:19;24.20;99.90
2999;DHT22;1509;51.964;7.628;2022-09-13T14:49:50;24.10;99.90
2999;DHT22;1509;51.964;7.628;2022-09-13T14:52:25;24.00;99.90
2999;DHT22;1509;51.964;7.628;2022-09-13T14:54:55;24.00;99.90
2999;DHT22;1509;51.964;7.628;2022-09-13T14:57:37;24.00;99.90
2999;DHT22;1509;51.964;7.628;2022-09-13T15:00:06;23.90;99.90
2999;DHT22;1509;51.964;7.628;2022-09-13T15:02:38;24.00;99.90
2999;DHT22;1509;51.964;7.628;2022-09-13T15:05:12;24.10;99.90
2999;DHT22;1509;51.964;7.628;2022-09-13T15:07:40;24.10;99.90
2999;DHT22;1509;51.964;7.628;2022-09-13T15:10:22;24.00;99.90
2999;DHT22;1509;51.964;7.628;2022-09-13T15:13:09;23.80;99.90
2999;DHT22;1509;51.964;7.628;2022-09-13T15:15:39;23.60;99.90
2999;DHT22;1509;51.964;7.628;2022-09-13T15:25:50;23.50;99.90
2999;DHT22;1509;51.964;7.628;2022-09-13T15:28:21;23.60;99.90
2999;DHT22;1509;51.964;7.628;2022-09-13T15:30:47;23.70;99.90
2999;DHT22;1509;51.964;7.628;2022-09-13T15:33:19;23.80;99.90
2999;DHT22;1509;51.964;7.628;2022-09-13T15:35:47;23.90;99.90
2999;DHT22;1509;51.964;7.628;2022-09-13T15:38:28;23.90;99.90
2999;DHT22;1509;51.964;7.628;2022-09-13T15:43:26;23.90;99.90
2999;DHT22;1509;51.964;7.628;2022-09-13T15:45:55;23.90;99.90
2999;DHT22;1509;51.964;7.628;2022-09-13T15:48:34;23.90;99.90
2999;DHT22;1509;51.964;7.628;2022-09-13T15:53:35;23.70;99.90
2999;DHT22;1509;51.964;7.628;2022-09-13T15:56:02;23.60;99.90
2999;DHT22;1509;51.964;7.628;2022-09-13T15:58:28;23.50;99.90
2999;DHT22;1509;51.964;7.628;2022-09-13T16:00:54;23.50;99.90
2999;DHT22;1509;51.964;7.628;2022-09-13T16:03:19;23.40;99.90
2999;DHT22;1509;51.964;7.628;2022-09-13T16:05:45;23.40;99.90
2999;DHT22;1509;51.964;7.628;2022-09-13T16:08:11;23.40;99.90
2999;DHT22;1509;51.964;7.628;2022-09-13T16:10:37;23.40;99.90
2999;DHT22;1509;51.964;7.628;2022-09-13T16:13:03;23.40;99.90
2999;DHT22;1509;51.964;7.628;2022-09-13T16:15:29;23.40;99.90
2999;DHT22;1509;51.964;7.628;2022-09-13T16:17:54;23.40;99.90
2999;DHT22;1509;51.964;7.628;2022-09-13T16:20:20;23.40;99.90
2999;DHT22;1509;51.964;7.628;2022-09-13T16:22:46;23.40;99.90
2999;DHT22;1509;51.964;7.628;2022-09-13T16:25:13;23.30;99.90
2999;DHT22;1509;51.964;7.628;2022-09-13T16:27:40;23.30;99.90
2999;DHT22;1509;51.964;7.628;2022-09-13T16:30:06;23.30;99.90
2999;DHT22;1509;51.964;7.628;2022-09-13T16:32:32;23.20;99.90
2999;DHT22;1509;51.964;7.628;2022-09-13T16:34:58;23.10;99.90
2999;DHT22;1509;51.964;7.628;2022-09-13T16:37:23;23.10;99.90
2999;DHT22;1509;51.964;7.628;2022-09-13T16:39:49;23.00;99.90
2999;DHT22;1509;51.964;7.628;2022-09-13T16:42:15;23.00;99.90
2999;DHT22;1509;51.964;7.628;2022-09-13T16:44:42;23.00;99.90
2999;DHT22;1509;51.964;7.628;2022-09-13T16:47:08;22.90;99.90
2999;DHT22;1509;51.964;7.628;2022-09-13T16:49:34;22.80;99.90
2999;DHT22;1509;51.964;7.628;2022-09-13T16:51:59;22.90;99.90
2999;DHT22;1509;51.964;7.628;2022-09-13T16:54:26;22.90;99.90
2999;DHT22;1509;51.964;7.628;2022-09-13T16:56:52;22.80;99.90
2999;DHT22;1509;51.964;7.628;2022-09-13T16:59:18;22.90;99.90
2999;DHT22;1509;51.964;7.628;2022-09-13T17:01:43;22.90;99.90
2999;DHT22;1509;51.964;7.628;2022-09-13T17:04:09;22.80;99.90
2999;DHT22;1509;51.964;7.628;2022-09-13T17:06:36;22.80;99.90
2999;DHT22;1509;51.964;7.628;2022-09-13T17:09:03;22.70;99.90
2999;DHT22;1509;51.964;7.628;2022-09-13T17:11:32;22.70;99.90
2999;DHT22;1509;51.964;7.628;2022-09-13T17:13:59;22.60;99.90
2999;DHT22;1509;51.964;7.628;2022-09-13T17:16:29;22.60;99.90
2999;DHT22;1509;51.964;7.628;2022-09-13T17:18:57;22.50;99.90
2999;DHT22;1509;51.964;7.628;2022-09-13T17:21:23;22.50;99.90
2999;DHT22;1509;51.964;7.628;2022-09-13T17:23:48;22.50;99.90
2999;DHT22;1509;51.964;7.628;2022-09-13T17:26:14;22.30;99.90
2999;DHT22;1509;51.964;7.628;2022-09-13T17:28:40;22.40;99.90
2999;DHT22;1509;51.964;7.628;2022-09-13T17:31:06;22.30;99.90
2999;DHT22;1509;51.964;7.628;2022-09-13T17:33:31;22.20;99.90
2999;DHT22;1509;51.964;7.628;2022-09-13T17:36:00;22.20;99.90
2999;DHT22;1509;51.964;7.628;2022-09-13T17:38:27;22.20;99.90
2999;DHT22;1509;51.964;7.628;2022-09-13T17:41:10;22.10;99.90
2999;DHT22;1509;51.964;7.628;2022-09-13T17:43:37;22.00;99.90
2999;DHT22;1509;51.964;7.628;2022-09-13T17:46:22;21.90;99.90
2999;DHT22;1509;51.964;7.628;2022-09-13T17:48:52;21.90;99.90
2999;DHT22;1509;51.964;7.628;2022-09-13T17:51:20;21.80;99.90
2999;DHT22;1509;51.964;7.628;2022-09-13T17:53:47;21.70;99.90
2999;DHT22;1509;51.964;7.628;2022-09-13T17:56:25;21.60;99.90
2999;DHT22;1509;51.964;7.628;2022-09-13T17:58:54;21.60;99.90
2999;DHT22;1509;51.964;7.628;2022-09-13T18:01:20;21.60;99.90
2999;DHT22;1509;51.964;7.628;2022-09-13T18:03:46;21.50;99.90
2999;DHT22;1509;51.964;7.628;2022-09-13T18:06:12;21.50;99.90
2999;DHT22;1509;51.964;7.628;2022-09-13T18:08:39;21.50;99.90
2999;DHT22;1509;51.964;7.628;2022-09-13T18:11:15;21.40;99.90
2999;DHT22;1509;51.964;7.628;2022-09-13T18:13:43;21.40;99.90
2999;DHT22;1509;51.964;7.628;2022-09-13T18:16:14;21.30;99.90
2999;DHT22;1509;51.964;7.628;2022-09-13T18:18:41;21.20;99.90
2999;DHT22;1509;51.964;7.628;2022-09-13T18:21:07;21.20;99.90
2999;DHT22;1509;51.964;7.628;2022-09-13T18:23:34;21.10;99.90
2999;DHT22;1509;51.964;7.628;2022-09-13T18:26:05;21.10;99.90
2999;DHT22;1509;51.964;7.628;2022-09-13T18:28:32;21.00;99.90
2999;DHT22;1509;51.964;7.628;2022-09-13T18:30:59;21.00;99.90
2999;DHT22;1509;51.964;7.628;2022-09-13T18:33:26;20.90;99.90
2999;DHT22;1509;51.964;7.628;2022-09-13T18:36:04;20.80;99.90
2999;DHT22;1509;51.964;7.628;2022-09-13T18:38:40;20.80;99.90
2999;DHT22;1509;51.964;7.628;2022-09-13T18:41:15;20.80;99.90
2999;DHT22;1509;51.964;7.628;2022-09-13T18:43:42;20.70;99.90
2999;DHT22;1509;51.964;7.628;2022-09-13T18:46:13;20.70;99.90
2999;DHT22;1509;51.964;7.628;2022-09-13T18:48:42;20.60;99.90
2999;DHT22;1509;51.964;7.628;2022-09-13T18:51:10;20.70;99.90
2999;DHT22;1509;51.964;7.628;2022-09-13T18:53:36;20.60;99.90
2999;DHT22;1509;51.964;7.628;2022-09-13T18:56:11;20.60;99.90
2999;DHT22;1509;51.964;7.628;2022-09-13T18:58:38;20.50;99.90
2999;DHT22;1509;51.964;7.628;2022-09-13T19:01:18;20.50;99.90
2999;DHT22;1509;51.964;7.628;2022-09-13T19:03:49;20.40;99.90
2999;DHT22;1509;51.964;7.628;2022-09-13T19:06:20;20.40;99.90
2999;DHT22;1509;51.964;7.628;2022-09-13T19:08:47;20.40;99.90
2999;DHT22;1509;51.964;7.628;2022-09-13T19:11:14;20.40;99.90
2999;DHT22;1509;51.964;7.628;2022-09-13T19:13:40;20.30;99.90
2999;DHT22;1509;51.964;7.628;2022-09-13T19:16:08;20.20;99.90
2999;DHT22;1509;51.964;7.628;2022-09-13T19:18:36;20.20;99.90
2999;DHT22;1509;51.964;7.628;2022-09-13T19:21:07;20.20;99.90
2999;DHT22;1509;51.964;7.628;2022-09-13T19:23:34;20.10;99.90
2999;DHT22;1509;51.964;7.628;2022-09-13T19:26:07;20.10;99.90
2999;DHT22;1509;51.964;7.628;2022-09-13T19:28:36;20.10;99.90
2999;DHT22;1509;51.964;7.628;2022-09-13T19:31:06;20.00;99.90
2999;DHT22;1509;51.964;7.628;2022-09-13T19:33:33;20.00;99.90
2999;DHT22;1509;51.964;7.628;2022-09-13T19:36:04;19.90;99.90
2999;DHT22;1509;51.964;7.628;2022-09-13T19:38:31;19.80;99.90
2999;DHT22;1509;51.964;7.628;2022-09-13T19:40:58;19.70;99.90
2999;DHT22;1509;51.964;7.628;2022-09-13T19:43:27;19.70;99.90
2999;DHT22;1509;51.964;7.628;2022-09-13T19:46:01;19.60;99.90
2999;DHT22;1509;51.964;7.628;2022-09-13T19:48:28;19.60;99.90
2999;DHT22;1509;51.964;7.628;2022-09-13T19:50:54;19.60;99.90